Time;durP1;ratioP1;P1;durP2;ratioP2;P2;SDS_P1;SDS_P2;PMS_P1;PMS_P2;Temp;Humidity;BMP_temperature;BMP_pressure;BME280_temperature;BME280_humidity;BME280_pressure;Samples;Min_cycle;Max_cycle;Signal;HPM_P1;HPM_P2
2023/04/06 00:00:25;;;;;;;8.00;7.80;;;21.20;44.60;;;;;;5053054;28;20452;-52
2023/04/06 00:02:52;;;;;;;7.77;7.57;;;21.20;44.60;;;;;;5053308;28;20460;-52
2023/04/06 00:05:20;;;;;;;6.53;6.37;;;21.20;44.60;;;;;;5053192;28;20991;-51
2023/04/06 00:07:47;;;;;;;7.63;7.43;;;21.20;44.60;;;;;;5053214;28;20951;-51
2023/04/06 00:10:14;;;;;;;7.40;7.20;;;21.20;44.60;;;;;;5053323;28;20530;-51
2023/04/06 00:12:41;;;;;;;7.80;7.60;;;21.20;44.60;;;;;;5052773;28;20465;-53
2023/04/06 00:15:09;;;;;;;8.80;8.60;;;21.10;44.50;;;;;;5052845;28;20475;-50
2023/04/06 00:17:37;;;;;;;8.33;8.13;;;21.20;44.60;;;;;;5052802;28;20456;-49
2023/04/06 00:20:06;;;;;;;9.27;9.07;;;21.10;44.60;;;;;;5052875;28;20502;-51
2023/04/06 00:22:33;;;;;;;8.70;8.40;;;21.10;44.60;;;;;;5051957;28;20866;-53
2023/04/06 00:25:00;;;;;;;8.30;8.10;;;21.10;44.60;;;;;;5052995;28;20444;-50
2023/04/06 00:27:27;;;;;;;9.03;8.83;;;21.10;44.60;;;;;;5052811;28;20873;-55
2023/04/06 00:29:54;;;;;;;8.50;8.30;;;21.10;44.60;;;;;;5052745;28;20451;-55
2023/04/06 00:32:21;;;;;;;9.00;8.80;;;21.10;44.60;;;;;;5052430;28;20472;-52
2023/04/06 00:34:49;;;;;;;9.00;8.80;;;21.10;44.60;;;;;;5052514;28;20476;-52
2023/04/06 00:37:16;;;;;;;7.97;7.77;;;21.10;44.60;;;;;;5052418;28;20444;-54
2023/04/06 00:39:44;;;;;;;8.47;8.17;;;21.00;44.60;;;;;;5052835;28;20448;-52
2023/04/06 00:42:14;;;;;;;8.37;8.10;;;21.00;44.60;;;;;;5052635;28;20550;-55
2023/04/06 00:44:41;;;;;;;8.17;7.97;;;21.00;44.50;;;;;;5052555;28;20932;-53
2023/04/06 00:47:08;;;;;;;8.17;7.97;;;21.00;44.60;;;;;;5052886;28;20700;-54
2023/04/06 00:49:35;;;;;;;8.10;7.83;;;21.00;44.50;;;;;;5061615;28;20453;-54
2023/04/06 00:52:04;;;;;;;8.50;8.20;;;21.00;44.60;;;;;;5063779;28;20494;-54
2023/04/06 00:54:31;;;;;;;8.63;8.43;;;21.00;44.60;;;;;;5062817;28;20476;-54
2023/04/06 00:56:58;;;;;;;7.77;7.57;;;21.00;44.60;;;;;;5063556;28;20694;-53
2023/04/06 00:59:25;;;;;;;8.63;8.33;;;21.00;44.60;;;;;;5063763;28;20501;-55
2023/04/06 01:01:52;;;;;;;8.13;7.90;;;21.00;44.60;;;;;;5062915;28;21120;-50
2023/04/06 01:04:19;;;;;;;7.80;7.60;;;21.00;44.60;;;;;;5052513;28;20444;-49
2023/04/06 01:06:46;;;;;;;7.80;7.60;;;21.00;44.60;;;;;;5052063;28;20448;-53
2023/04/06 01:09:15;;;;;;;7.43;7.23;;;21.00;45.10;;;;;;5052039;28;21282;-49
2023/04/06 01:11:42;;;;;;;7.60;7.40;;;21.00;44.60;;;;;;5052399;28;20444;-52
2023/04/06 01:14:09;;;;;;;7.20;7.00;;;21.00;44.60;;;;;;5052037;28;20467;-49
2023/04/06 01:16:36;;;;;;;9.00;8.60;;;21.00;44.60;;;;;;5051908;28;20444;-49
2023/04/06 01:19:09;;;;;;;7.93;7.73;;;21.00;44.60;;;;;;5051821;28;20850;-50
2023/04/06 01:21:36;;;;;;;8.00;7.80;;;20.90;44.50;;;;;;5052106;28;21011;-50
2023/04/06 01:24:06;;;;;;;8.20;7.90;;;21.00;44.60;;;;;;5051787;28;20514;-52
2023/04/06 01:26:33;;;;;;;7.97;7.67;;;20.90;44.50;;;;;;5051682;28;20498;-49
2023/04/06 01:29:01;;;;;;;8.50;8.10;;;20.90;44.50;;;;;;5051892;28;20452;-50
2023/04/06 01:31:28;;;;;;;8.00;7.80;;;20.90;44.50;;;;;;5051821;28;20496;-49
2023/04/06 01:33:55;;;;;;;8.30;7.83;;;20.90;44.50;;;;;;5051751;28;20482;-50
2023/04/06 01:36:23;;;;;;;8.73;8.37;;;20.90;44.60;;;;;;5051965;28;20573;-51
2023/04/06 01:38:50;;;;;;;7.80;7.60;;;20.90;44.60;;;;;;5051257;28;20501;-51
2023/04/06 01:41:18;;;;;;;8.87;8.53;;;20.90;44.50;;;;;;5051801;28;20455;-49
2023/04/06 01:43:45;;;;;;;7.90;7.70;;;20.90;44.60;;;;;;5051938;28;20469;-49
2023/04/06 01:46:12;;;;;;;7.90;7.70;;;20.90;44.60;;;;;;5051894;28;20506;-51
2023/04/06 01:48:39;;;;;;;8.47;8.20;;;20.90;44.60;;;;;;5051353;28;20867;-51
2023/04/06 01:51:06;;;;;;;7.67;7.47;;;20.80;44.50;;;;;;5051567;28;20854;-51
2023/04/06 01:53:33;;;;;;;7.60;7.37;;;20.80;44.50;;;;;;5051650;28;20971;-49
2023/04/06 01:56:00;;;;;;;7.80;7.50;;;20.80;44.50;;;;;;5051712;28;20484;-50
2023/04/06 01:58:28;;;;;;;7.80;7.60;;;20.90;44.60;;;;;;5051396;28;20456;-49
2023/04/06 02:00:55;;;;;;;8.00;7.80;;;20.80;44.50;;;;;;5051616;28;20446;-51
2023/04/06 02:03:22;;;;;;;8.30;8.10;;;20.80;44.50;;;;;;5051500;28;20907;-51
2023/04/06 02:05:49;;;;;;;8.57;8.20;;;20.80;44.50;;;;;;5051492;28;20921;-51
2023/04/06 02:08:16;;;;;;;7.43;7.23;;;20.80;44.60;;;;;;5050947;28;20536;-49
2023/04/06 02:10:43;;;;;;;7.80;7.60;;;20.80;44.50;;;;;;5054602;28;20444;-49
2023/04/06 02:13:10;;;;;;;8.20;7.90;;;20.80;44.50;;;;;;5055365;28;20498;-54
2023/04/06 02:15:39;;;;;;;7.93;7.73;;;20.80;44.50;;;;;;5055323;28;20479;-49
2023/04/06 02:18:06;;;;;;;7.73;7.53;;;20.80;44.50;;;;;;5054971;28;20447;-51
2023/04/06 02:20:33;;;;;;;7.53;7.33;;;20.80;44.50;;;;;;5055500;28;20498;-49
2023/04/06 02:23:00;;;;;;;7.93;7.60;;;20.80;45.10;;;;;;5055517;28;20464;-51
2023/04/06 02:25:27;;;;;;;8.07;7.87;;;20.80;44.50;;;;;;5055460;28;20534;-50
2023/04/06 02:27:55;;;;;;;7.20;7.00;;;20.80;44.50;;;;;;5054901;28;20801;-51
2023/04/06 02:30:22;;;;;;;7.10;6.90;;;20.80;44.50;;;;;;5055320;28;20452;-52
2023/04/06 02:32:50;;;;;;;9.13;8.80;;;20.80;44.50;;;;;;5054749;28;20553;-50
2023/04/06 02:35:17;;;;;;;7.97;7.73;;;20.80;45.00;;;;;;5054775;28;20483;-51
2023/04/06 02:37:44;;;;;;;8.47;8.27;;;20.80;44.50;;;;;;5054876;28;20537;-52
2023/04/06 02:40:12;;;;;;;8.73;8.53;;;20.80;44.50;;;;;;5054796;28;20951;-51
2023/04/06 02:42:39;;;;;;;9.30;9.00;;;20.80;44.50;;;;;;5054930;28;20541;-50
2023/04/06 02:45:07;;;;;;;8.87;8.57;;;20.80;44.50;;;;;;5054708;28;20854;-52
2023/04/06 02:47:34;;;;;;;8.90;8.60;;;20.80;44.50;;;;;;5054822;28;20931;-50
2023/04/06 02:50:03;;;;;;;7.80;7.60;;;20.80;44.50;;;;;;5054771;28;20543;-52
2023/04/06 02:52:30;;;;;;;8.10;7.80;;;20.80;44.50;;;;;;5054852;28;20538;-49
2023/04/06 02:54:57;;;;;;;8.10;7.90;;;20.80;44.50;;;;;;5054424;28;20448;-50
2023/04/06 02:57:24;;;;;;;8.70;8.40;;;20.80;44.50;;;;;;5054751;28;20448;-51
2023/04/06 02:59:51;;;;;;;8.23;7.93;;;20.80;44.50;;;;;;5054593;28;20444;-49
2023/04/06 03:02:17;;;;;;;7.57;7.30;;;20.80;44.50;;;;;;5054432;28;20526;-50
2023/04/06 03:04:45;;;;;;;8.00;7.70;;;20.70;44.40;;;;;;5054527;28;20950;-50
2023/04/06 03:07:13;;;;;;;8.93;8.63;;;20.70;44.50;;;;;;5054340;28;20448;-49
2023/04/06 03:09:40;;;;;;;7.97;7.70;;;20.70;44.50;;;;;;5054656;28;20447;-49
2023/04/06 03:12:08;;;;;;;8.00;7.60;;;20.70;44.60;;;;;;5054528;28;20448;-49
2023/04/06 03:14:35;;;;;;;7.37;7.17;;;20.70;44.60;;;;;;5054853;28;20444;-49
2023/04/06 03:17:02;;;;;;;7.67;7.47;;;20.70;44.60;;;;;;5054486;28;20479;-49
2023/04/06 03:19:29;;;;;;;8.17;7.80;;;20.70;44.60;;;;;;5054364;28;20460;-50
2023/04/06 03:21:56;;;;;;;7.70;7.50;;;20.80;44.60;;;;;;5052763;28;20502;-52
2023/04/06 03:24:24;;;;;;;7.40;7.20;;;20.70;44.50;;;;;;5054527;28;20535;-50
2023/04/06 03:26:51;;;;;;;9.27;8.87;;;20.70;44.50;;;;;;5054138;28;20447;-50
2023/04/06 03:29:18;;;;;;;8.03;7.43;;;20.70;44.60;;;;;;5053972;28;20456;-49
2023/04/06 03:31:45;;;;;;;7.80;7.60;;;20.70;44.60;;;;;;5054018;28;20440;-52
2023/04/06 03:34:12;;;;;;;8.20;7.80;;;20.70;44.60;;;;;;5053893;28;20475;-52
2023/04/06 03:36:39;;;;;;;7.60;7.30;;;20.70;44.60;;;;;;5053750;28;20537;-49
2023/04/06 03:39:06;;;;;;;8.00;7.70;;;20.70;44.60;;;;;;5054111;28;20443;-50
2023/04/06 03:41:35;;;;;;;7.20;7.00;;;20.70;44.50;;;;;;5053742;28;20448;-51
2023/04/06 03:44:02;;;;;;;7.40;7.10;;;20.70;44.50;;;;;;5053789;28;20472;-49
2023/04/06 03:46:29;;;;;;;8.50;8.10;;;20.70;44.50;;;;;;5053874;28;20432;-52
2023/04/06 03:48:56;;;;;;;7.73;7.43;;;20.70;44.60;;;;;;5053570;28;20445;-51
2023/04/06 03:51:23;;;;;;;7.90;7.60;;;20.70;44.60;;;;;;5053850;28;20440;-50
2023/04/06 03:53:50;;;;;;;6.90;6.70;;;20.70;44.60;;;;;;5053539;28;20468;-50
2023/04/06 03:56:17;;;;;;;7.13;6.93;;;20.70;44.60;;;;;;5053692;28;20529;-50
2023/04/06 03:58:49;;;;;;;7.47;7.17;;;20.70;44.60;;;;;;5053210;28;20962;-52
2023/04/06 04:01:16;;;;;;;6.90;6.70;;;20.70;44.60;;;;;;5053437;28;20444;-51
2023/04/06 04:03:43;;;;;;;6.70;6.40;;;20.70;44.60;;;;;;5053556;28;20987;-50
2023/04/06 04:06:10;;;;;;;6.33;6.13;;;20.70;44.60;;;;;;5053394;28;20444;-49
2023/04/06 04:08:36;;;;;;;5.90;5.70;;;20.70;44.60;;;;;;5053150;28;20989;-50
2023/04/06 04:11:04;;;;;;;6.93;6.63;;;20.70;44.60;;;;;;5053410;28;20914;-51
2023/04/06 04:13:30;;;;;;;6.47;6.07;;;20.70;44.60;;;;;;5053094;28;20514;-51
2023/04/06 04:15:59;;;;;;;6.80;6.50;;;20.70;44.60;;;;;;5053202;28;20480;-52
2023/04/06 04:18:26;;;;;;;7.03;6.83;;;20.70;44.60;;;;;;5053064;28;20448;-49
2023/04/06 04:20:53;;;;;;;6.30;6.10;;;20.70;44.60;;;;;;5052959;28;20983;-49
2023/04/06 04:23:20;;;;;;;6.33;6.13;;;20.70;44.60;;;;;;5053305;28;20866;-50
2023/04/06 04:25:47;;;;;;;6.50;6.30;;;20.60;44.50;;;;;;5053290;28;20458;-52
2023/04/06 04:28:14;;;;;;;7.00;6.70;;;20.60;44.60;;;;;;5052672;28;20983;-49
2023/04/06 04:30:41;;;;;;;6.57;6.40;;;20.60;44.60;;;;;;5052809;28;20474;-50
2023/04/06 04:33:10;;;;;;;7.90;7.53;;;20.60;44.60;;;;;;5052204;28;20534;-52
2023/04/06 04:35:37;;;;;;;7.00;6.80;;;20.60;44.50;;;;;;5052671;28;20839;-50
2023/04/06 04:38:04;;;;;;;6.90;6.70;;;20.60;44.60;;;;;;5052614;28;21203;-49
2023/04/06 04:40:31;;;;;;;6.10;6.00;;;20.60;44.70;;;;;;5052364;28;20445;-54
2023/04/06 04:42:57;;;;;;;6.50;6.30;;;20.70;44.70;;;;;;5052120;28;20526;-49
2023/04/06 04:45:24;;;;;;;7.80;7.20;;;20.70;44.80;;;;;;5052318;28;20444;-51
2023/04/06 04:47:51;;;;;;;7.50;7.20;;;20.70;44.90;;;;;;5052183;28;20448;-50
2023/04/06 04:50:20;;;;;;;7.87;7.27;;;20.70;45.10;;;;;;5052112;28;20451;-49
2023/04/06 04:52:47;;;;;;;8.47;7.77;;;20.70;45.40;;;;;;5052239;28;20881;-49
2023/04/06 04:55:14;;;;;;;11.70;10.57;;;20.70;45.60;;;;;;5052116;28;20509;-50
2023/04/06 04:57:41;;;;;;;8.10;7.40;;;20.70;46.10;;;;;;5051094;28;21040;-51
2023/04/06 05:00:09;;;;;;;19.93;7.70;;;20.80;47.60;;;;;;5050605;28;20931;-50
2023/04/06 05:02:36;;;;;;;7.93;7.33;;;20.80;48.50;;;;;;5051829;28;20539;-51
2023/04/06 05:05:03;;;;;;;10.87;7.30;;;20.80;48.60;;;;;;5052063;28;20850;-54
2023/04/06 05:07:32;;;;;;;8.20;7.60;;;20.90;48.40;;;;;;5051735;28;20800;-53
2023/04/06 05:09:59;;;;;;;8.27;7.57;;;20.90;48.20;;;;;;5051930;28;20506;-53
2023/04/06 05:12:26;;;;;;;7.27;6.90;;;20.90;47.90;;;;;;5051739;28;20471;-51
2023/04/06 05:14:54;;;;;;;7.50;6.97;;;20.90;47.60;;;;;;5051978;28;20444;-50
2023/04/06 05:17:21;;;;;;;8.43;7.70;;;20.90;47.40;;;;;;5051588;28;20484;-51
2023/04/06 05:19:48;;;;;;;7.70;7.20;;;21.00;47.30;;;;;;5051750;28;20811;-55
2023/04/06 05:22:17;;;;;;;9.57;8.37;;;21.00;47.10;;;;;;5051650;28;20472;-53
2023/04/06 05:24:46;;;;;;;7.37;6.77;;;21.00;47.20;;;;;;5051817;28;20444;-53
2023/04/06 05:27:13;;;;;;;7.73;6.93;;;21.00;46.80;;;;;;5051464;28;20502;-51
2023/04/06 05:29:40;;;;;;;7.57;7.07;;;21.00;46.70;;;;;;5051572;28;20456;-50
2023/04/06 05:34:38;;;;;;;7.70;7.17;;;21.00;46.50;;;;;;5090363;28;20957;-63
2023/04/06 05:37:05;;;;;;;7.40;7.07;;;21.00;46.40;;;;;;5091541;28;20470;-61
2023/04/06 05:39:32;;;;;;;7.63;7.23;;;21.00;46.30;;;;;;5091762;28;20890;-60
2023/04/06 05:42:05;;;;;;;6.87;6.47;;;21.00;46.20;;;;;;5091770;28;20438;-61
2023/04/06 05:44:32;;;;;;;6.43;6.20;;;21.00;46.10;;;;;;5090960;28;20459;-62
2023/04/06 05:46:59;;;;;;;6.67;6.27;;;21.00;46.60;;;;;;5091593;28;20937;-62
2023/04/06 05:49:26;;;;;;;7.57;7.07;;;21.00;46.00;;;;;;5091523;28;20446;-63
2023/04/06 05:51:53;;;;;;;6.97;6.40;;;21.00;45.90;;;;;;5091640;28;20507;-59
2023/04/06 05:54:20;;;;;;;7.03;6.73;;;21.00;45.90;;;;;;5091525;28;20458;-64
2023/04/06 05:56:47;;;;;;;7.10;6.90;;;21.00;45.80;;;;;;5091366;28;20485;-60
2023/04/06 05:59:16;;;;;;;7.20;6.80;;;21.00;45.70;;;;;;5091474;28;20446;-63
2023/04/06 06:01:43;;;;;;;6.70;6.40;;;21.00;45.70;;;;;;5091560;28;20443;-62
2023/04/06 06:04:10;;;;;;;6.40;6.20;;;21.00;45.60;;;;;;5091468;28;20470;-61
2023/04/06 06:06:37;;;;;;;8.50;8.00;;;21.00;45.60;;;;;;5091428;28;20495;-60
2023/04/06 06:09:04;;;;;;;6.10;5.90;;;20.90;45.40;;;;;;5091476;28;20550;-64
2023/04/06 06:11:32;;;;;;;6.70;6.40;;;21.00;45.40;;;;;;5091449;28;20937;-62
2023/04/06 06:13:59;;;;;;;7.23;6.93;;;20.90;45.30;;;;;;5091419;28;20470;-62
2023/04/06 06:16:28;;;;;;;7.13;6.83;;;20.90;45.20;;;;;;5091336;28;20477;-62
2023/04/06 06:18:55;;;;;;;7.80;7.23;;;20.90;45.20;;;;;;5091094;28;20488;-59
2023/04/06 06:21:22;;;;;;;7.03;6.83;;;20.90;45.70;;;;;;5091379;28;20523;-62
2023/04/06 06:23:50;;;;;;;7.20;7.00;;;20.90;45.20;;;;;;5091399;28;20466;-63
2023/04/06 06:26:17;;;;;;;7.30;7.00;;;20.90;45.10;;;;;;5091223;28;20474;-64
2023/04/06 06:28:44;;;;;;;7.40;6.80;;;20.80;45.00;;;;;;5091144;28;20478;-62
2023/04/06 06:31:11;;;;;;;7.40;7.13;;;20.80;45.00;;;;;;5091269;28;20499;-62
2023/04/06 06:33:39;;;;;;;6.47;6.03;;;20.80;44.90;;;;;;5091100;28;20553;-62
2023/04/06 06:36:07;;;;;;;7.23;6.90;;;20.80;44.90;;;;;;5091508;28;20929;-62
2023/04/06 06:38:34;;;;;;;7.70;7.30;;;20.80;44.90;;;;;;5090911;28;21093;-59
2023/04/06 06:41:01;;;;;;;7.07;6.77;;;20.80;44.90;;;;;;5091118;28;20448;-64
2023/04/06 06:43:28;;;;;;;7.00;6.57;;;20.80;44.90;;;;;;5091160;28;20519;-64
2023/04/06 06:45:55;;;;;;;7.47;7.27;;;20.80;44.90;;;;;;5091367;28;20446;-63
2023/04/06 06:48:22;;;;;;;7.30;7.00;;;20.80;44.90;;;;;;5090981;28;20521;-62
2023/04/06 06:50:50;;;;;;;7.40;7.00;;;20.70;44.80;;;;;;5091166;28;20449;-64
2023/04/06 06:53:17;;;;;;;7.07;6.77;;;20.70;44.80;;;;;;5091084;28;20883;-61
2023/04/06 06:55:45;;;;;;;6.80;6.60;;;20.70;44.80;;;;;;5092651;28;20446;-61
2023/04/06 06:58:12;;;;;;;7.07;6.77;;;20.70;44.80;;;;;;5094386;28;20572;-62
2023/04/06 07:00:39;;;;;;;6.53;6.33;;;20.70;44.80;;;;;;5094690;28;20503;-63
2023/04/06 07:03:06;;;;;;;7.10;6.80;;;20.70;44.80;;;;;;5094809;28;20461;-65
2023/04/06 07:05:33;;;;;;;6.20;6.10;;;20.60;44.70;;;;;;5094591;28;20503;-63
2023/04/06 07:08:01;;;;;;;6.93;6.63;;;20.60;44.70;;;;;;5094326;28;20446;-60
2023/04/06 07:10:28;;;;;;;6.90;6.70;;;20.60;44.70;;;;;;5094496;28;20456;-63
2023/04/06 07:12:55;;;;;;;7.10;6.80;;;20.60;44.70;;;;;;5094612;28;20977;-63
2023/04/06 07:15:22;;;;;;;6.33;6.23;;;20.60;44.70;;;;;;5094514;28;20450;-62
2023/04/06 07:17:49;;;;;;;7.00;6.80;;;20.60;44.70;;;;;;5093970;28;20980;-62
2023/04/06 07:20:17;;;;;;;7.07;6.67;;;20.60;44.70;;;;;;5094402;28;20959;-63
2023/04/06 07:22:45;;;;;;;7.13;6.83;;;20.60;44.70;;;;;;5094124;28;20535;-60
2023/04/06 07:25:13;;;;;;;7.40;6.97;;;20.50;44.60;;;;;;5094336;28;20721;-60
2023/04/06 07:27:40;;;;;;;7.53;6.80;;;20.50;44.70;;;;;;5093892;28;20508;-63
2023/04/06 07:30:09;;;;;;;6.60;6.40;;;20.50;44.70;;;;;;5094284;28;20453;-61
2023/04/06 07:32:36;;;;;;;6.87;6.57;;;20.50;44.70;;;;;;5093899;28;20551;-60
2023/04/06 07:35:03;;;;;;;7.20;6.90;;;20.50;44.70;;;;;;5094119;28;20464;-63
2023/04/06 07:37:30;;;;;;;6.83;6.63;;;20.50;44.70;;;;;;5093633;28;20478;-62
2023/04/06 07:39:56;;;;;;;6.10;6.00;;;20.50;44.60;;;;;;5093933;28;20438;-64
2023/04/06 07:42:25;;;;;;;6.50;6.30;;;20.50;44.70;;;;;;5093910;28;20442;-61
2023/04/06 07:44:52;;;;;;;6.97;6.77;;;20.50;44.70;;;;;;5093838;28;20451;-62
2023/04/06 07:47:19;;;;;;;7.00;6.80;;;20.50;44.70;;;;;;5093684;28;20442;-63
2023/04/06 07:49:46;;;;;;;7.50;7.10;;;20.50;44.70;;;;;;5094014;28;20488;-60
2023/04/06 07:52:13;;;;;;;6.60;6.40;;;20.40;44.70;;;;;;5093460;28;20553;-62
2023/04/06 07:54:41;;;;;;;7.07;6.90;;;20.50;44.80;;;;;;5093669;28;20928;-62
2023/04/06 07:57:08;;;;;;;7.37;7.20;;;20.40;44.70;;;;;;5093415;28;20531;-63
2023/04/06 07:59:36;;;;;;;6.60;6.43;;;20.50;44.80;;;;;;5093579;28;20450;-63
2023/04/06 08:02:03;;;;;;;7.57;7.37;;;20.40;44.70;;;;;;5093476;28;20447;-62
2023/04/06 08:04:30;;;;;;;7.33;7.03;;;20.40;44.70;;;;;;5093390;28;20470;-60
2023/04/06 08:06:57;;;;;;;7.53;7.30;;;20.40;44.70;;;;;;5092442;28;20450;-63
2023/04/06 08:09:24;;;;;;;7.43;7.23;;;20.40;44.70;;;;;;5093357;28;20446;-62
2023/04/06 08:11:51;;;;;;;7.40;7.10;;;20.40;44.70;;;;;;5093327;28;20457;-63
2023/04/06 08:14:18;;;;;;;7.10;6.90;;;20.40;44.70;;;;;;5093151;28;20474;-61
2023/04/06 08:16:47;;;;;;;7.63;7.33;;;20.30;44.70;;;;;;5092853;28;20477;-64
2023/04/06 08:19:16;;;;;;;7.13;6.93;;;20.30;44.70;;;;;;5092993;28;20456;-63
2023/04/06 08:21:44;;;;;;;7.50;7.20;;;20.30;44.70;;;;;;5093050;28;20443;-64
2023/04/06 08:24:11;;;;;;;7.43;7.20;;;20.30;44.70;;;;;;5092888;28;20873;-62
2023/04/06 08:26:37;;;;;;;7.23;7.03;;;20.30;44.70;;;;;;5092764;28;20503;-64
2023/04/06 08:29:07;;;;;;;7.87;7.57;;;20.30;44.70;;;;;;5093063;28;20503;-62
2023/04/06 08:31:34;;;;;;;7.63;7.30;;;20.30;44.70;;;;;;5092782;28;20457;-63
2023/04/06 08:34:03;;;;;;;7.47;7.27;;;20.30;44.70;;;;;;5092564;28;20898;-60
2023/04/06 08:36:30;;;;;;;8.30;7.90;;;20.20;44.60;;;;;;5092826;28;20495;-62
2023/04/06 08:38:57;;;;;;;7.20;7.00;;;20.20;44.60;;;;;;5092695;28;20447;-62
2023/04/06 08:41:24;;;;;;;7.67;7.47;;;20.30;44.70;;;;;;5092695;28;20434;-62
2023/04/06 08:43:57;;;;;;;7.27;7.07;;;20.30;44.70;;;;;;5092472;28;20462;-62
2023/04/06 08:46:29;;;;;;;8.17;7.87;;;20.30;44.70;;;;;;5092669;28;20921;-63
2023/04/06 08:48:56;;;;;;;7.40;7.20;;;20.30;44.70;;;;;;5092356;28;20872;-63
2023/04/06 08:51:25;;;;;;;7.33;7.13;;;20.20;44.60;;;;;;5092541;28;20462;-60
2023/04/06 08:53:54;;;;;;;7.47;7.27;;;20.20;44.50;;;;;;5092336;28;20501;-63
2023/04/06 08:56:22;;;;;;;7.57;7.37;;;20.20;44.60;;;;;;5092550;28;20442;-61
2023/04/06 08:58:50;;;;;;;8.27;7.87;;;20.20;44.60;;;;;;5092020;28;20486;-62
2023/04/06 09:01:21;;;;;;;7.87;7.67;;;20.20;44.60;;;;;;5092379;28;20446;-62
2023/04/06 09:03:51;;;;;;;7.77;7.47;;;20.20;44.60;;;;;;5092252;28;20545;-63
2023/04/06 09:06:18;;;;;;;7.53;7.27;;;20.10;44.50;;;;;;5092227;28;20873;-60
2023/04/06 09:08:47;;;;;;;7.50;7.30;;;20.10;44.50;;;;;;5091931;28;20469;-62
2023/04/06 09:11:14;;;;;;;7.30;7.20;;;20.10;44.50;;;;;;5092196;28;20496;-62
2023/04/06 09:13:49;;;;;;;7.90;7.60;;;20.10;44.50;;;;;;5091989;28;20462;-63
2023/04/06 09:16:16;;;;;;;8.20;7.90;;;20.10;44.40;;;;;;5092252;28;20532;-63
2023/04/06 09:18:43;;;;;;;7.80;7.60;;;20.10;44.40;;;;;;5091859;28;20580;-62
2023/04/06 09:21:11;;;;;;;7.73;7.53;;;20.10;44.50;;;;;;5092125;28;20474;-62
2023/04/06 09:23:38;;;;;;;7.60;7.40;;;20.10;44.50;;;;;;5092008;28;20557;-63
2023/04/06 09:26:09;;;;;;;8.33;8.13;;;20.00;44.40;;;;;;5091974;28;20442;-64
2023/04/06 09:28:45;;;;;;;7.40;7.30;;;20.10;44.40;;;;;;5091777;28;20442;-63
2023/04/06 09:31:12;;;;;;;7.03;6.83;;;20.10;44.40;;;;;;5092016;28;20521;-63
2023/04/06 09:33:40;;;;;;;7.80;7.50;;;20.00;44.40;;;;;;5091695;28;20478;-62
2023/04/06 09:36:09;;;;;;;8.00;7.70;;;20.00;44.40;;;;;;5091817;28;20449;-60
2023/04/06 09:38:37;;;;;;;7.30;7.10;;;20.00;44.90;;;;;;5091524;28;20503;-62
2023/04/06 09:41:04;;;;;;;8.07;7.87;;;20.00;44.40;;;;;;5091699;28;20442;-63
2023/04/06 09:43:33;;;;;;;7.77;7.57;;;20.00;45.00;;;;;;5091681;28;20458;-60
2023/04/06 09:46:02;;;;;;;7.70;7.50;;;20.00;44.50;;;;;;5091816;28;20495;-63
2023/04/06 09:48:34;;;;;;;7.80;7.60;;;20.00;44.40;;;;;;5091639;28;20442;-60
2023/04/06 09:51:05;;;;;;;7.40;7.10;;;20.00;44.40;;;;;;5091587;28;20496;-60
2023/04/06 09:53:36;;;;;;;7.43;7.23;;;20.00;44.40;;;;;;5091509;28;20462;-62
2023/04/06 09:56:04;;;;;;;8.23;7.93;;;20.00;44.40;;;;;;5091906;28;20446;-62
2023/04/06 09:58:38;;;;;;;7.73;7.53;;;20.00;44.40;;;;;;5091378;28;20563;-60
2023/04/06 10:01:09;;;;;;;7.47;7.27;;;20.00;44.40;;;;;;5091635;28;20442;-60
2023/04/06 10:03:44;;;;;;;7.43;7.23;;;19.90;44.30;;;;;;5091488;28;20516;-63
2023/04/06 10:06:13;;;;;;;7.83;7.53;;;19.90;44.90;;;;;;5091583;28;20810;-62
2023/04/06 10:08:43;;;;;;;7.57;7.37;;;19.90;44.30;;;;;;5091291;28;20435;-62
2023/04/06 10:11:10;;;;;;;8.20;7.90;;;19.90;44.30;;;;;;5091621;28;20450;-64
2023/04/06 10:13:39;;;;;;;7.70;7.50;;;19.90;44.30;;;;;;5091496;28;20983;-60
2023/04/06 10:16:08;;;;;;;7.63;7.50;;;19.90;44.30;;;;;;5091399;28;20453;-62
2023/04/06 10:18:35;;;;;;;7.67;7.47;;;19.90;44.80;;;;;;5091141;28;20481;-62
2023/04/06 10:21:07;;;;;;;8.80;8.50;;;19.90;44.30;;;;;;5091152;28;20450;-64
2023/04/06 10:23:36;;;;;;;8.07;7.77;;;19.90;44.30;;;;;;5091225;28;20467;-59
2023/04/06 10:26:04;;;;;;;7.57;7.37;;;19.90;44.30;;;;;;5091379;28;20480;-60
2023/04/06 10:28:33;;;;;;;8.20;8.00;;;19.90;44.30;;;;;;5091805;28;20442;-63
2023/04/06 10:31:03;;;;;;;7.93;7.73;;;19.90;44.90;;;;;;5093281;28;20532;-60
2023/04/06 10:33:30;;;;;;;7.77;7.47;;;19.90;44.30;;;;;;5095019;28;20538;-62
2023/04/06 10:35:57;;;;;;;8.40;8.20;;;19.90;44.30;;;;;;5095338;28;20840;-63
2023/04/06 10:38:35;;;;;;;7.43;7.23;;;19.90;44.30;;;;;;5094732;28;20473;-62
2023/04/06 10:41:05;;;;;;;7.90;7.70;;;19.90;44.40;;;;;;5095204;28;20437;-60
2023/04/06 10:43:35;;;;;;;7.73;7.60;;;19.90;44.40;;;;;;5094949;28;20904;-62
2023/04/06 10:46:05;;;;;;;7.73;7.53;;;19.90;44.40;;;;;;5095141;28;20536;-60
2023/04/06 10:48:39;;;;;;;8.00;7.70;;;19.90;44.40;;;;;;5094660;28;20442;-63
2023/04/06 10:51:10;;;;;;;7.47;7.30;;;19.90;44.40;;;;;;5094796;28;20486;-63
2023/04/06 10:53:37;;;;;;;7.30;7.10;;;19.90;44.40;;;;;;5094653;28;20813;-62
2023/04/06 10:56:06;;;;;;;7.87;7.67;;;19.80;44.30;;;;;;5094752;28;20450;-62
2023/04/06 10:58:33;;;;;;;7.50;7.30;;;19.80;44.30;;;;;;5094504;28;20588;-61
2023/04/06 11:01:00;;;;;;;7.63;7.43;;;19.90;44.40;;;;;;5094615;28;20453;-63
2023/04/06 11:03:29;;;;;;;7.70;7.50;;;19.90;44.40;;;;;;5094423;28;20470;-60
2023/04/06 11:05:56;;;;;;;7.70;7.50;;;19.90;44.40;;;;;;5094541;28;20442;-62
2023/04/06 11:08:24;;;;;;;7.30;7.10;;;19.90;44.40;;;;;;5094365;28;20446;-61
2023/04/06 11:10:51;;;;;;;7.70;7.50;;;19.80;44.30;;;;;;5094478;28;20537;-62
2023/04/06 11:13:18;;;;;;;4.90;4.80;;;19.90;44.40;;;;;;5094758;28;20458;-61
2023/04/06 11:15:45;;;;;;;5.10;5.00;;;19.80;44.30;;;;;;5094639;28;20977;-62
2023/04/06 11:18:12;;;;;;;5.30;5.20;;;19.80;44.30;;;;;;5093892;28;20548;-62
2023/04/06 11:20:48;;;;;;;4.47;4.37;;;19.90;44.40;;;;;;5094415;28;20499;-62
2023/04/06 11:23:23;;;;;;;5.57;5.47;;;19.90;44.30;;;;;;5094248;28;20991;-62
2023/04/06 11:25:52;;;;;;;5.17;5.07;;;19.90;44.30;;;;;;5094175;28;20442;-63
2023/04/06 11:28:19;;;;;;;4.63;4.53;;;19.80;44.20;;;;;;5094104;28;20530;-62
2023/04/06 11:30:47;;;;;;;5.30;5.20;;;19.80;44.20;;;;;;5094153;28;20502;-63
2023/04/06 11:33:21;;;;;;;5.00;4.80;;;19.80;44.20;;;;;;5094408;28;20482;-61
2023/04/06 11:35:50;;;;;;;4.07;4.03;;;19.80;44.20;;;;;;5094074;28;20441;-61
2023/04/06 11:38:19;;;;;;;5.27;5.07;;;19.80;44.20;;;;;;5093564;28;20896;-61
2023/04/06 11:40:46;;;;;;;5.17;5.07;;;19.80;44.10;;;;;;5093871;28;20507;-62
2023/04/06 11:43:13;;;;;;;4.60;4.50;;;19.80;44.10;;;;;;5092602;28;20984;-61
2023/04/06 11:45:44;;;;;;;4.60;4.50;;;19.80;44.10;;;;;;5093806;28;20447;-62
2023/04/06 11:48:20;;;;;;;4.80;4.70;;;19.80;44.20;;;;;;5093433;28;20451;-61
2023/04/06 11:50:48;;;;;;;4.40;4.30;;;19.80;44.20;;;;;;5093745;28;20479;-61
2023/04/06 11:53:16;;;;;;;4.63;4.53;;;19.80;44.10;;;;;;5093462;28;20473;-62
2023/04/06 11:55:47;;;;;;;4.87;4.77;;;19.80;44.20;;;;;;5093690;28;20493;-62
2023/04/06 11:58:14;;;;;;;4.60;4.50;;;19.80;44.10;;;;;;5093336;28;20844;-61
2023/04/06 12:00:44;;;;;;;5.07;4.87;;;19.80;44.10;;;;;;5093469;28;20446;-61
2023/04/06 12:03:11;;;;;;;4.70;4.60;;;19.80;44.10;;;;;;5093191;28;20543;-62
2023/04/06 12:05:39;;;;;;;5.57;5.37;;;19.80;44.10;;;;;;5093431;28;20446;-62
2023/04/06 12:08:05;;;;;;;4.97;4.87;;;19.80;44.10;;;;;;5093029;28;20447;-62
2023/04/06 12:10:34;;;;;;;4.80;4.70;;;19.80;44.10;;;;;;5093129;28;20933;-61
2023/04/06 12:13:01;;;;;;;5.57;5.37;;;19.80;44.10;;;;;;5093129;28;20470;-62
2023/04/06 12:15:28;;;;;;;5.20;5.10;;;19.80;44.10;;;;;;5093177;28;20450;-62
2023/04/06 12:17:55;;;;;;;4.50;4.40;;;19.80;44.10;;;;;;5092776;28;20840;-62
2023/04/06 12:20:22;;;;;;;4.50;4.40;;;19.80;44.10;;;;;;5093041;28;20446;-62
2023/04/06 12:22:49;;;;;;;4.57;4.47;;;19.80;44.10;;;;;;5092844;28;20462;-61
2023/04/06 12:25:16;;;;;;;4.73;4.53;;;19.80;44.10;;;;;;5092890;28;20507;-62
2023/04/06 12:27:45;;;;;;;4.50;4.40;;;19.80;44.10;;;;;;5092700;28;20467;-61
2023/04/06 12:30:12;;;;;;;4.70;4.60;;;19.80;44.10;;;;;;5092759;28;20478;-62
2023/04/06 12:32:40;;;;;;;4.37;4.33;;;19.80;44.10;;;;;;5092513;28;20534;-62
2023/04/06 12:35:08;;;;;;;5.03;4.93;;;19.80;44.10;;;;;;5092826;28;20945;-62
2023/04/06 12:37:36;;;;;;;4.40;4.30;;;19.80;44.10;;;;;;5092673;28;20529;-62
2023/04/06 12:40:04;;;;;;;4.60;4.47;;;19.80;44.20;;;;;;5092609;28;20989;-61
2023/04/06 12:42:31;;;;;;;5.00;4.90;;;19.80;44.10;;;;;;5092611;28;20478;-61
2023/04/06 12:44:59;;;;;;;4.90;4.80;;;19.80;44.10;;;;;;5092514;28;20442;-62
2023/04/06 12:47:27;;;;;;;4.70;4.60;;;19.80;44.20;;;;;;5092388;28;20496;-61
2023/04/06 12:49:55;;;;;;;4.90;4.80;;;19.80;44.10;;;;;;5092398;28;20442;-61